createdAt,value
2018-05-10T00:02:27.400Z,16.15
2018-05-10T00:04:58.020Z,19.05
2018-05-10T00:07:26.604Z,13.38
2018-05-10T00:09:55.561Z,10.38
2018-05-10T00:12:23.960Z,10.00
2018-05-10T00:14:52.520Z,11.63
2018-05-10T00:17:20.921Z,10.50
2018-05-10T00:19:49.501Z,10.02
2018-05-10T00:22:18.267Z,13.90
2018-05-10T00:24:47.276Z,13.60
2018-05-10T00:27:15.799Z,14.02
2018-05-10T00:29:45.093Z,13.68
2018-05-10T00:32:14.236Z,10.32
2018-05-10T00:34:42.653Z,10.02
2018-05-10T00:37:11.022Z,9.95
2018-05-10T00:39:39.424Z,11.63
2018-05-10T00:42:08.566Z,13.65
2018-05-10T00:44:36.938Z,8.43
2018-05-10T00:47:05.344Z,13.35
2018-05-10T00:49:33.718Z,8.57
2018-05-10T00:52:02.121Z,9.05
2018-05-10T00:54:48.324Z,10.75
2018-05-10T00:57:16.809Z,9.70
2018-05-10T00:59:46.052Z,12.85
2018-05-10T01:02:16.100Z,11.18
2018-05-10T01:04:44.576Z,13.62
2018-05-10T01:07:12.972Z,12.88
2018-05-10T01:09:41.419Z,12.23
2018-05-10T01:12:10.349Z,11.05
2018-05-10T01:14:38.896Z,17.80
2018-05-10T01:17:10.401Z,24.87
2018-05-10T01:19:39.132Z,11.10
2018-05-10T01:22:08.156Z,12.68
2018-05-10T01:24:36.530Z,15.20
2018-05-10T01:27:04.936Z,12.10
2018-05-10T01:29:34.076Z,10.85
2018-05-10T01:32:02.460Z,13.32
2018-05-10T01:34:30.825Z,9.60
2018-05-10T01:36:59.416Z,14.63
2018-05-10T01:39:27.794Z,12.32
2018-05-10T01:41:56.173Z,10.70
2018-05-10T01:44:24.577Z,10.88
2018-05-10T01:46:52.957Z,15.15
2018-05-10T01:49:21.374Z,11.60
2018-05-10T01:51:49.752Z,11.07
2018-05-10T01:54:18.461Z,11.65
2018-05-10T01:56:46.841Z,14.23
2018-05-10T01:59:15.217Z,11.98
2018-05-10T02:01:43.620Z,19.30
2018-05-10T02:04:12.193Z,20.37
2018-05-10T02:06:40.601Z,16.50
2018-05-10T02:09:09.067Z,22.25
2018-05-10T02:11:37.541Z,20.12
2018-05-10T02:14:05.911Z,23.85
2018-05-10T02:16:34.281Z,26.85
2018-05-10T02:19:02.685Z,16.87
2018-05-10T02:21:31.056Z,15.27
2018-05-10T02:23:59.451Z,10.68
2018-05-10T02:26:27.849Z,12.07
2018-05-10T02:28:57.033Z,11.65
2018-05-10T02:31:25.408Z,14.57
2018-05-10T02:33:53.781Z,10.80
2018-05-10T02:36:23.740Z,17.50
2018-05-10T02:38:52.864Z,9.43
2018-05-10T02:41:21.257Z,11.05
2018-05-10T02:43:49.651Z,11.05
2018-05-10T02:46:18.211Z,10.43
2018-05-10T02:48:46.581Z,13.80
2018-05-10T02:51:14.950Z,8.73
2018-05-10T02:53:43.340Z,10.63
2018-05-10T02:56:11.717Z,12.43
2018-05-10T02:58:40.126Z,10.30
2018-05-10T03:01:08.539Z,11.90
2018-05-10T03:03:37.720Z,10.93
2018-05-10T03:06:06.857Z,11.75
2018-05-10T03:08:35.240Z,7.10
2018-05-10T03:11:03.634Z,12.18
2018-05-10T03:13:32.008Z,8.80
2018-05-10T03:16:00.417Z,12.35
2018-05-10T03:18:28.794Z,12.80
2018-05-10T03:20:57.338Z,17.98
2018-05-10T03:23:25.709Z,15.32
2018-05-10T03:25:54.092Z,14.98
2018-05-10T03:28:22.527Z,11.10
2018-05-10T03:30:51.780Z,9.80
2018-05-10T03:33:20.228Z,9.70
2018-05-10T03:35:48.568Z,11.25
2018-05-10T03:38:16.971Z,14.20
2018-05-10T03:40:46.113Z,10.38
2018-05-10T03:43:14.493Z,11.60
2018-05-10T03:45:42.893Z,13.43
2018-05-10T03:48:11.268Z,10.48
2018-05-10T03:50:39.669Z,8.93
2018-05-10T03:53:08.840Z,8.13
2018-05-10T03:55:37.245Z,8.93
2018-05-10T03:58:06.392Z,14.75
2018-05-10T04:00:34.777Z,8.55
2018-05-10T04:06:50.403Z,11.02
2018-05-10T04:09:36.638Z,7.95
2018-05-10T04:12:05.806Z,11.38
2018-05-10T04:14:34.181Z,8.48
2018-05-10T04:17:02.681Z,7.60
2018-05-10T04:19:31.823Z,7.60
2018-05-10T04:22:00.189Z,8.43
2018-05-10T04:24:28.585Z,9.90
2018-05-10T04:26:56.952Z,6.53
2018-05-10T04:29:25.376Z,8.57
2018-05-10T04:31:53.749Z,9.43
2018-05-10T04:34:22.177Z,7.87
2018-05-10T04:36:50.552Z,12.75
2018-05-10T04:39:18.925Z,9.15
2018-05-10T04:41:48.090Z,6.50
2018-05-10T04:44:16.464Z,11.52
2018-05-10T04:46:44.895Z,7.82
2018-05-10T04:49:13.264Z,8.68
2018-05-10T04:51:42.090Z,7.22
2018-05-10T04:54:10.464Z,6.70
2018-05-10T04:56:38.837Z,9.38
2018-05-10T04:59:07.245Z,14.57
2018-05-10T05:01:35.624Z,7.62
2018-05-10T05:04:04.097Z,6.70
2018-05-10T05:06:33.181Z,7.85
2018-05-10T05:09:01.951Z,7.32
2018-05-10T05:11:30.317Z,12.32
2018-05-10T05:13:58.692Z,8.90
2018-05-10T05:16:27.085Z,7.10
2018-05-10T05:18:55.456Z,7.12
2018-05-10T05:21:23.855Z,7.30
2018-05-10T05:23:52.233Z,6.30
2018-05-10T05:26:20.799Z,5.95
2018-05-10T05:28:49.176Z,8.05
2018-05-10T05:31:17.543Z,9.68
2018-05-10T05:33:45.943Z,7.35
2018-05-10T05:36:14.397Z,12.50
2018-05-10T05:38:42.786Z,9.77
2018-05-10T05:41:11.193Z,7.00
2018-05-10T05:43:39.545Z,5.37
2018-05-10T05:46:07.937Z,6.90
2018-05-10T05:48:36.303Z,5.40
2018-05-10T05:51:04.698Z,8.02
2018-05-10T05:53:33.070Z,5.97
2018-05-10T05:56:01.480Z,7.45
2018-05-10T05:58:29.849Z,7.12
2018-05-10T06:00:58.303Z,6.65
2018-05-10T06:03:27.442Z,5.07
2018-05-10T06:05:56.110Z,4.90
2018-05-10T06:08:24.499Z,5.03
2018-05-10T06:10:52.881Z,8.20
2018-05-10T06:13:21.358Z,4.43
2018-05-10T06:15:49.795Z,5.72
2018-05-10T06:18:18.904Z,7.30
2018-05-10T06:20:47.298Z,5.75
2018-05-10T06:23:15.696Z,8.15
2018-05-10T06:25:44.096Z,4.87
2018-05-10T06:28:13.231Z,6.62
2018-05-10T06:30:41.640Z,5.40
2018-05-10T06:33:10.053Z,4.32
2018-05-10T06:35:39.194Z,6.72
2018-05-10T06:38:07.601Z,4.45
2018-05-10T06:40:35.988Z,4.10
2018-05-10T06:43:04.385Z,6.05
2018-05-10T06:45:33.525Z,3.55
2018-05-10T06:48:02.300Z,3.90
2018-05-10T06:50:30.689Z,7.00
2018-05-10T06:52:59.084Z,4.37
2018-05-10T06:55:27.489Z,3.55
2018-05-10T06:57:56.634Z,4.03
2018-05-10T07:00:25.130Z,8.10
2018-05-10T07:02:53.524Z,4.10
2018-05-10T07:05:22.037Z,5.20
2018-05-10T07:07:51.182Z,15.88
2018-05-10T07:10:19.617Z,3.25
2018-05-10T07:12:48.789Z,6.65
2018-05-10T07:15:17.166Z,4.47
2018-05-10T07:17:45.568Z,4.93
2018-05-10T07:20:14.721Z,4.13
2018-05-10T07:22:43.189Z,7.33
2018-05-10T07:25:11.626Z,6.40
2018-05-10T07:27:39.968Z,6.20
2018-05-10T07:30:08.364Z,9.70
2018-05-10T07:32:36.753Z,19.73
2018-05-10T07:35:06.006Z,12.40
2018-05-10T07:37:34.900Z,4.30
2018-05-10T07:40:03.325Z,4.13
2018-05-10T07:42:32.568Z,7.00
2018-05-10T07:45:00.964Z,5.93
2018-05-10T07:47:29.428Z,5.03
2018-05-10T07:49:57.773Z,16.90
2018-05-10T07:52:26.186Z,5.90
2018-05-10T07:54:54.568Z,9.03
2018-05-10T07:57:22.977Z,7.00
2018-05-10T07:59:51.350Z,6.50
2018-05-10T08:02:19.785Z,8.13
2018-05-10T08:04:48.930Z,6.33
2018-05-10T08:07:17.313Z,5.83
2018-05-10T08:09:45.735Z,5.47
2018-05-10T08:12:14.117Z,17.73
2018-05-10T08:14:42.533Z,13.23
2018-05-10T08:17:11.707Z,13.93
2018-05-10T08:19:40.081Z,7.57
2018-05-10T08:22:08.526Z,9.70
2018-05-10T08:24:37.669Z,12.00
2018-05-10T08:27:06.142Z,16.63
2018-05-10T08:29:34.506Z,8.90
2018-05-10T08:32:02.923Z,11.10
2018-05-10T08:34:31.333Z,12.60
2018-05-10T08:37:00.473Z,11.30
2018-05-10T08:39:28.876Z,4.70
2018-05-10T08:41:57.283Z,4.63
2018-05-10T08:44:26.448Z,8.93
2018-05-10T08:46:54.824Z,6.03
2018-05-10T08:49:23.604Z,6.87
2018-05-10T08:51:52.018Z,13.47
2018-05-10T08:54:20.381Z,7.20
2018-05-10T08:56:48.772Z,10.20
2018-05-10T08:59:17.153Z,7.27
2018-05-10T09:01:45.994Z,6.73
2018-05-10T09:04:14.435Z,9.10
2018-05-10T09:06:43.782Z,14.83
2018-05-10T09:09:12.171Z,6.00
2018-05-10T09:11:40.560Z,5.97
2018-05-10T09:14:09.145Z,6.77
2018-05-10T09:16:37.566Z,15.73
2018-05-10T09:19:06.607Z,15.97
2018-05-10T09:21:36.635Z,12.27
2018-05-10T09:24:05.472Z,5.90
2018-05-10T09:26:34.933Z,11.20
2018-05-10T09:29:04.804Z,10.47
2018-05-10T09:31:33.695Z,8.60
2018-05-10T09:34:02.966Z,10.80
2018-05-10T09:36:32.813Z,8.90
2018-05-10T09:39:02.221Z,5.47
2018-05-10T09:41:30.982Z,8.83
2018-05-10T09:44:00.641Z,11.50
2018-05-10T09:46:29.689Z,5.53
2018-05-10T09:48:58.114Z,3.87
2018-05-10T09:51:26.935Z,11.33
2018-05-10T09:53:57.211Z,5.07
2018-05-10T09:56:27.167Z,4.33
2018-05-10T09:58:56.653Z,15.13
2018-05-10T10:01:25.073Z,10.90
2018-05-10T10:03:54.452Z,8.03
2018-05-10T10:06:23.589Z,5.03
2018-05-10T10:08:51.962Z,5.67
2018-05-10T10:11:20.568Z,5.40
2018-05-10T10:13:48.933Z,3.40
2018-05-10T10:16:17.338Z,4.97
2018-05-10T10:18:45.719Z,3.77
2018-05-10T10:21:14.737Z,5.73
2018-05-10T10:23:43.141Z,17.57
2018-05-10T10:26:11.658Z,4.13
2018-05-10T10:28:40.070Z,5.80
2018-05-10T10:31:08.451Z,4.30
2018-05-10T10:33:36.864Z,3.87
2018-05-10T10:36:05.233Z,5.93
2018-05-10T10:38:33.973Z,15.13
2018-05-10T10:41:02.341Z,3.30
2018-05-10T10:43:33.023Z,3.50
2018-05-10T10:46:01.636Z,3.20
2018-05-10T10:48:30.136Z,3.43
2018-05-10T10:50:58.532Z,4.80
2018-05-10T10:53:28.309Z,2.80
2018-05-10T10:55:56.737Z,4.77
2018-05-10T10:58:25.419Z,2.27
2018-05-10T11:00:53.869Z,5.20
2018-05-10T11:03:23.116Z,5.13
2018-05-10T11:05:52.365Z,9.20
2018-05-10T11:08:20.803Z,3.07
2018-05-10T11:10:49.181Z,2.60
2018-05-10T11:13:18.376Z,2.87
2018-05-10T11:15:48.078Z,4.93
2018-05-10T11:18:17.968Z,6.73
2018-05-10T11:20:46.900Z,3.30
2018-05-10T11:23:16.975Z,5.20
2018-05-10T11:25:45.390Z,8.37
2018-05-10T11:28:14.533Z,2.70
2018-05-10T11:30:43.059Z,2.03
2018-05-10T11:33:12.451Z,3.60
2018-05-10T11:35:41.094Z,4.93
2018-05-10T11:38:09.465Z,2.77
2018-05-10T11:40:37.840Z,2.80
2018-05-10T11:43:07.551Z,2.80
2018-05-10T11:45:36.451Z,4.20
2018-05-10T11:48:04.883Z,5.20
2018-05-10T11:50:35.078Z,7.07
2018-05-10T11:53:04.194Z,4.40
2018-05-10T11:55:33.580Z,7.73
2018-05-10T11:58:02.753Z,9.47
2018-05-10T12:00:31.411Z,4.37
2018-05-10T12:03:00.688Z,3.90
2018-05-10T12:05:29.855Z,19.53
2018-05-10T12:07:58.720Z,8.20
2018-05-10T12:10:31.897Z,14.43
2018-05-10T12:13:03.725Z,5.20
2018-05-10T12:15:34.951Z,21.63
2018-05-10T12:18:04.171Z,5.23
2018-05-10T12:20:33.811Z,5.03
2018-05-10T12:23:04.026Z,3.53
2018-05-10T12:25:34.631Z,4.13
2018-05-10T12:28:05.062Z,4.43
2018-05-10T12:30:35.162Z,3.87
2018-05-10T12:33:05.552Z,8.07
2018-05-10T12:35:35.297Z,3.37
2018-05-10T12:38:06.394Z,3.00
2018-05-10T12:40:35.380Z,3.80
2018-05-10T12:43:05.650Z,4.87
2018-05-10T12:45:35.734Z,3.67
2018-05-10T12:48:06.530Z,2.80
2018-05-10T12:50:36.648Z,8.33
2018-05-10T12:53:06.817Z,18.50
2018-05-10T12:55:36.129Z,10.00
2018-05-10T12:58:06.313Z,12.33
2018-05-10T13:00:35.892Z,3.50
2018-05-10T13:03:06.077Z,2.40
2018-05-10T13:05:37.159Z,2.50
2018-05-10T13:08:13.604Z,2.03
2018-05-10T13:10:45.343Z,10.47
2018-05-10T13:13:22.232Z,5.30
2018-05-10T13:15:55.576Z,2.20
2018-05-10T13:18:27.649Z,8.77
2018-05-10T13:20:56.202Z,2.10
2018-05-10T13:23:25.465Z,2.30
2018-05-10T13:25:57.618Z,1.80
2018-05-10T13:28:26.876Z,3.03
2018-05-10T13:30:55.753Z,2.90
2018-05-10T13:33:25.425Z,1.63
2018-05-10T13:35:55.648Z,3.50
2018-05-10T13:38:25.679Z,8.50
2018-05-10T13:40:55.381Z,3.33
2018-05-10T13:43:23.777Z,1.83
2018-05-10T13:45:53.920Z,1.50
2018-05-10T13:48:23.576Z,4.20
2018-05-10T13:50:51.966Z,5.73
2018-05-10T13:53:20.516Z,3.30
2018-05-10T13:55:48.893Z,6.07
2018-05-10T13:58:17.482Z,1.37
2018-05-10T14:00:45.853Z,1.70
2018-05-10T14:03:14.276Z,2.30
2018-05-10T14:05:43.523Z,8.13
2018-05-10T14:08:11.842Z,1.57
2018-05-10T14:10:40.233Z,1.43
2018-05-10T14:13:12.977Z,4.60
2018-05-10T14:15:42.292Z,3.20
2018-05-10T14:18:10.665Z,1.40
2018-05-10T14:20:39.042Z,1.47
2018-05-10T14:23:07.439Z,2.00
2018-05-10T14:25:35.805Z,1.63
2018-05-10T14:28:04.186Z,1.30
2018-05-10T14:30:32.780Z,3.63
2018-05-10T14:33:02.145Z,2.87
2018-05-10T14:35:30.679Z,1.70
2018-05-10T14:37:59.834Z,2.50
2018-05-10T14:40:28.233Z,2.70
2018-05-10T14:42:56.745Z,1.53
2018-05-10T14:45:25.256Z,3.43
2018-05-10T14:47:53.847Z,3.43
2018-05-10T14:50:22.529Z,2.03
2018-05-10T14:52:51.133Z,1.70
2018-05-10T14:55:19.839Z,2.27
2018-05-10T14:57:48.235Z,4.53
2018-05-10T15:00:17.361Z,1.43
2018-05-10T15:02:45.752Z,2.30
2018-05-10T15:05:14.441Z,1.63
2018-05-10T15:07:42.858Z,1.40
2018-05-10T15:10:11.267Z,4.00
2018-05-10T15:12:39.635Z,2.23
2018-05-10T15:15:08.808Z,3.13
2018-05-10T15:17:37.186Z,1.23
2018-05-10T15:20:06.365Z,1.10
2018-05-10T15:22:35.549Z,1.50
2018-05-10T15:25:04.113Z,1.13
2018-05-10T15:27:32.798Z,2.20
2018-05-10T15:30:01.465Z,2.47
2018-05-10T15:32:30.180Z,3.50
2018-05-10T15:34:58.588Z,1.60
2018-05-10T15:37:27.449Z,5.80
2018-05-10T15:39:56.022Z,1.10
2018-05-10T15:42:24.418Z,1.53
2018-05-10T15:44:52.799Z,1.40
2018-05-10T15:47:21.173Z,1.70
2018-05-10T15:49:49.704Z,2.87
2018-05-10T15:52:18.092Z,1.57
2018-05-10T15:54:46.490Z,1.40
2018-05-10T15:57:16.121Z,3.70
2018-05-10T15:59:45.147Z,3.10
2018-05-10T16:02:14.119Z,4.53
2018-05-10T16:04:55.636Z,5.13
2018-05-10T16:07:35.935Z,1.53
2018-05-10T16:10:10.814Z,2.27
2018-05-10T16:12:40.780Z,1.40
2018-05-10T16:15:11.342Z,5.40
2018-05-10T16:17:42.111Z,1.60
2018-05-10T16:20:11.509Z,2.13
2018-05-10T16:22:44.704Z,1.37
2018-05-10T16:25:17.272Z,0.90
2018-05-10T16:27:54.477Z,2.20
2018-05-10T16:30:27.915Z,2.70
2018-05-10T16:32:56.925Z,1.63
2018-05-10T16:35:25.304Z,2.73
2018-05-10T16:37:53.692Z,8.50
2018-05-10T16:40:22.126Z,2.10
2018-05-10T16:42:50.505Z,1.83
2018-05-10T16:45:18.909Z,2.00
2018-05-10T16:47:47.293Z,7.07
2018-05-10T16:50:15.888Z,3.10
2018-05-10T16:52:44.248Z,1.40
2018-05-10T16:55:12.662Z,5.27
2018-05-10T16:57:41.877Z,1.53
2018-05-10T17:00:10.255Z,1.53
2018-05-10T17:02:38.655Z,1.60
2018-05-10T17:05:07.030Z,1.30
2018-05-10T17:07:35.626Z,3.07
2018-05-10T17:10:04.089Z,3.63
2018-05-10T17:12:32.463Z,1.70
2018-05-10T17:15:01.177Z,1.63
2018-05-10T17:17:29.593Z,1.80
2018-05-10T17:19:58.035Z,2.20
2018-05-10T17:22:26.414Z,3.70
2018-05-10T17:24:54.849Z,3.60
2018-05-10T17:27:24.358Z,1.48
2018-05-10T17:29:52.746Z,1.53
2018-05-10T17:32:21.149Z,2.10
2018-05-10T17:34:49.527Z,2.43
2018-05-10T17:37:17.936Z,2.80
2018-05-10T17:39:46.316Z,1.60
2018-05-10T17:42:14.860Z,1.12
2018-05-10T17:44:43.271Z,1.30
2018-05-10T17:47:13.165Z,3.83
2018-05-10T17:49:41.653Z,4.70
2018-05-10T17:52:10.040Z,2.58
2018-05-10T17:54:38.653Z,1.15
2018-05-10T17:57:07.805Z,1.37
2018-05-10T17:59:36.709Z,3.28
2018-05-10T18:02:05.097Z,3.63
2018-05-10T18:04:33.495Z,1.70
2018-05-10T18:07:03.104Z,1.30
2018-05-10T18:09:33.611Z,1.55
2018-05-10T18:12:03.275Z,1.65
2018-05-10T18:14:31.719Z,1.87
2018-05-10T18:17:01.101Z,1.25
2018-05-10T18:19:29.476Z,1.33
2018-05-10T18:21:57.938Z,1.45
2018-05-10T18:24:26.389Z,1.60
2018-05-10T18:26:54.823Z,4.85
2018-05-10T18:29:24.025Z,1.42
2018-05-10T18:31:54.086Z,1.50
2018-05-10T18:34:24.346Z,3.57
2018-05-10T18:36:54.866Z,1.25
2018-05-10T18:39:24.549Z,1.40
2018-05-10T18:41:54.518Z,3.55
2018-05-10T18:44:23.960Z,5.55
2018-05-10T18:46:53.318Z,1.50
2018-05-10T18:49:23.042Z,3.10
2018-05-10T18:51:52.048Z,1.42
2018-05-10T18:54:20.716Z,1.42
2018-05-10T18:56:50.196Z,1.10
2018-05-10T18:59:22.919Z,1.37
2018-05-10T19:01:53.467Z,1.10
2018-05-10T19:04:22.657Z,1.27
2018-05-10T19:06:51.859Z,1.65
2018-05-10T19:09:22.583Z,1.52
2018-05-10T19:11:52.135Z,2.58
2018-05-10T19:14:22.312Z,2.17
2018-05-10T19:16:51.201Z,7.28
2018-05-10T19:19:20.849Z,3.15
2018-05-10T19:21:49.598Z,11.23
2018-05-10T19:24:18.899Z,3.85
2018-05-10T19:26:47.593Z,6.32
2018-05-10T19:29:16.021Z,5.87
2018-05-10T19:31:44.450Z,9.50
2018-05-10T19:34:13.508Z,5.97
2018-05-10T19:36:42.773Z,8.27
2018-05-10T19:39:11.361Z,10.10
2018-05-10T19:41:40.029Z,15.55
2018-05-10T19:44:09.343Z,9.07
2018-05-10T19:46:38.434Z,7.75
2018-05-10T19:49:07.137Z,9.00
2018-05-10T19:51:36.625Z,7.40
2018-05-10T19:54:05.413Z,8.40
2018-05-10T19:56:33.910Z,7.68
2018-05-10T19:59:02.329Z,11.40
2018-05-10T20:01:31.382Z,9.90
2018-05-10T20:04:01.692Z,7.57
2018-05-10T20:06:30.427Z,9.85
2018-05-10T20:08:59.109Z,11.70
2018-05-10T20:11:28.827Z,6.78
2018-05-10T20:13:57.427Z,10.13
2018-05-10T20:16:25.850Z,6.32
2018-05-10T20:18:54.304Z,7.18
2018-05-10T20:21:22.721Z,5.53
2018-05-10T20:23:51.095Z,8.95
2018-05-10T20:26:20.104Z,4.00
2018-05-10T20:28:49.306Z,2.97
2018-05-10T20:31:18.807Z,4.12
2018-05-10T20:33:47.202Z,5.07
2018-05-10T20:36:16.797Z,6.75
2018-05-10T20:38:46.324Z,4.70
2018-05-10T20:41:14.848Z,7.53
2018-05-10T20:43:44.050Z,7.87
2018-05-10T20:46:12.423Z,5.20
2018-05-10T20:48:40.819Z,8.18
2018-05-10T20:51:09.249Z,8.50
2018-05-10T20:53:37.616Z,4.82
2018-05-10T20:56:06.016Z,4.70
2018-05-10T20:58:34.390Z,6.70
2018-05-10T21:01:03.093Z,10.93
2018-05-10T21:03:31.474Z,9.65
2018-05-10T21:05:59.861Z,6.70
2018-05-10T21:08:28.257Z,4.95
2018-05-10T21:10:57.942Z,8.75
2018-05-10T21:13:26.457Z,10.15
2018-05-10T21:15:55.004Z,4.37
2018-05-10T21:18:23.400Z,6.93
2018-05-10T21:20:51.789Z,5.60
2018-05-10T21:23:20.448Z,13.32
2018-05-10T21:25:49.169Z,4.68
2018-05-10T21:28:17.613Z,7.57
2018-05-10T21:30:46.016Z,10.05
2018-05-10T21:33:14.396Z,9.05
2018-05-10T21:35:42.797Z,14.50
2018-05-10T21:38:11.941Z,10.40
2018-05-10T21:40:41.146Z,14.13
2018-05-10T21:43:09.518Z,7.47
2018-05-10T21:45:37.888Z,10.25
2018-05-10T21:48:06.292Z,9.02
2018-05-10T21:50:34.661Z,9.38
2018-05-10T21:53:03.137Z,12.37
2018-05-10T21:55:31.566Z,9.40
2018-05-10T21:58:00.733Z,10.73
2018-05-10T22:00:29.106Z,13.85
2018-05-10T22:02:57.677Z,9.25
2018-05-10T22:05:26.042Z,8.10
2018-05-10T22:07:54.414Z,8.13
2018-05-10T22:10:22.809Z,9.40
2018-05-10T22:12:51.201Z,15.77
2018-05-10T22:15:19.602Z,11.43
2018-05-10T22:17:47.975Z,10.20
2018-05-10T22:20:16.402Z,11.77
2018-05-10T22:22:44.892Z,12.93
2018-05-10T22:25:13.219Z,18.70
2018-05-10T22:27:41.662Z,14.23
2018-05-10T22:30:10.064Z,13.70
2018-05-10T22:32:38.460Z,13.00
2018-05-10T22:35:07.529Z,11.40
2018-05-10T22:37:36.006Z,10.70
2018-05-10T22:40:05.607Z,15.32
2018-05-10T22:42:34.984Z,10.50
2018-05-10T22:45:03.404Z,12.43
2018-05-10T22:47:31.877Z,11.20
2018-05-10T22:50:01.182Z,11.63
2018-05-10T22:52:29.564Z,16.55
2018-05-10T22:54:58.119Z,9.80
2018-05-10T22:57:26.497Z,10.80
2018-05-10T22:59:54.885Z,10.68
2018-05-10T23:02:23.297Z,15.30
2018-05-10T23:04:51.679Z,11.00
2018-05-10T23:07:21.173Z,9.88
2018-05-10T23:09:50.596Z,11.70
2018-05-10T23:12:21.687Z,9.60
2018-05-10T23:14:50.060Z,12.55
2018-05-10T23:17:18.461Z,12.90
2018-05-10T23:19:46.853Z,14.63
2018-05-10T23:22:16.985Z,12.25
2018-05-10T23:24:45.839Z,13.18
2018-05-10T23:27:14.243Z,10.88
2018-05-10T23:29:42.619Z,15.38
2018-05-10T23:32:11.325Z,12.93
2018-05-10T23:34:40.498Z,8.65
2018-05-10T23:37:09.697Z,13.57
2018-05-10T23:39:38.253Z,10.48
2018-05-10T23:42:07.694Z,8.00
2018-05-10T23:44:36.887Z,11.05
2018-05-10T23:47:05.265Z,10.23
2018-05-10T23:49:35.144Z,13.95
2018-05-10T23:52:03.553Z,15.38
2018-05-10T23:54:32.360Z,10.18
2018-05-10T23:57:01.526Z,11.50
2018-05-10T23:59:29.896Z,9.43
